ADDS METAR Data INFO
IDs: Format: Raw Decoded Include TAF

Data at: 0803 UTC 23 Jul 2018

KBDE 230753Z AUTO 18004KT 10SM OVC070 19/18 A3001 RMK AO2 SLP161 T01940178
KBDE 230653Z AUTO 17005KT 10SM BKN080 19/17 A3003 RMK AO2 SLP165 T01890172
KBDE 230553Z AUTO 16005KT 10SM FEW047 19/17 A3004 RMK AO2 SLP171 T01890172 10244 20189 402720144 50004
KBDE 230453Z AUTO 15005KT 10SM BKN048 OVC060 20/17 A3005 RMK AO2 SLP174 T02000172
KBDE 230353Z AUTO 13003KT 10SM CLR 21/17 A3004 RMK AO2 SLP171 T02060167
KBDE 230253Z AUTO 19006KT 10SM CLR 22/17 A3003 RMK AO2 SLP168 T02170172 55007
KBDE 230153Z AUTO 15010KT 10SM CLR 23/18 A3000 RMK AO2 PRESFR SLP158 T02280183
KBDE 230053Z AUTO 19003KT 10SM CLR 23/18 A3006 RMK AO2 SLP177 T02330183
KBDE 222353Z AUTO 19005KT 10SM CLR 24/17 A3005 RMK AO2 SLP177 T02440167 10272 20244 55003
KBDE 222253Z AUTO 17008KT 10SM SCT041 27/17 A3005 RMK AO2 SLP175 T02670167
KBDE 222153Z AUTO 18004KT 10SM FEW040 27/17 A3006 RMK AO2 SLP178 T02670172
KBDE 222053Z AUTO 14011KT 10SM CLR 27/17 A3006 RMK AO2 SLP179 T02670167 58008
KBDE 221953Z AUTO 13007KT 10SM SCT037 26/17 A3007 RMK AO2 SLP182 T02560167
KBDE 221853Z AUTO 10007KT 10SM FEW034 25/17 A3008 RMK AO2 SLP186 T02500167
KBDE 221753Z AUTO 11011KT 10SM FEW031 25/17 A3009 RMK AO2 SLP188 T02500167 10256 20156 56010
KBDE 221653Z AUTO 10006KT 10SM SCT026 23/16 A3009 RMK AO2 SLP191 T02330161
KBDE 221641Z AUTO VRB06KT 10SM SCT024 24/17 A3009 RMK AO2 T02390167
KBDE 221629Z AUTO 11009KT 10SM BKN024 23/17 A3010 RMK AO2 T02330167
KBDE 221553Z AUTO 11012G16KT 10SM FEW021 23/17 A3010 RMK AO2 SLP192 T02280167
KBDE 221453Z AUTO 14010KT 10SM CLR 21/16 A3012 RMK AO2 SLP199 T02110161 58015
KBDE 221353Z AUTO 12011KT 10SM CLR 19/16 A3014 RMK AO2 SLP205 T01890156
KBDE 221253Z AUTO 12008KT 10SM CLR 17/16 A3016 RMK AO2 SLP212 T01720156
KBDE 221216Z AUTO 12007KT 10SM FEW002 16/15 A3016 RMK AO2 T01610150
KBDE 221153Z AUTO 13005KT 10SM CLR 16/15 A3016 RMK AO2 SLP216 T01560150 10156 20144 53011
KBDE 221053Z AUTO 13005KT 10SM CLR 14/14 A3016 RMK AO2 SLP212 T01440144
KBDE 220953Z AUTO 11007KT 10SM CLR 16/15 A3013 RMK AO2 SLP204 T01560150
KBDE 220853Z AUTO 10008KT 10SM CLR 16/15 A3013 RMK AO2 SLP204 T01560150 58008
KBDE 220753Z AUTO 10006KT 10SM FEW046 15/14 A3014 RMK AO2 SLP208 T01500144
KBDE 220653Z AUTO 10005KT 10SM CLR 15/14 A3016 RMK AO2 SLP212 T01500144
KBDE 220553Z AUTO 09005KT 10SM CLR 15/15 A3016 RMK AO2 SLP214 T01500150 10222 20150 402330150 50001
KBDE 220453Z AUTO 09004KT 10SM CLR 15/15 A3016 RMK AO2 SLP214 T01500150
KBDE 220353Z AUTO 00000KT 10SM CLR 17/16 A3015 RMK AO2 SLP212 T01670156
KBDE 220253Z AUTO 07005KT 10SM CLR 18/16 A3015 RMK AO2 SLP212 T01780161 53011
KBDE 220153Z AUTO 06004KT 10SM CLR 19/17 A3014 RMK AO2 SLP206 T01940167
KBDE 220053Z AUTO 05007KT 10SM BKN065 22/17 A3012 RMK AO2 SLP199 T02170172
KBDE 212353Z AUTO 06006KT 10SM FEW025 SCT036 OVC065 22/17 A3012 RMK AO2 SLP200 60000 T02220172 10233 20206 58002
KBDE 212253Z AUTO 06006KT 10SM SCT023 SCT030 BKN065 22/17 A3012 RMK AO2 SLP200 T02170172
KBDE 212240Z AUTO 07004KT 10SM BKN023 BKN032 OVC055 22/17 A3013 RMK AO2 T02170172
KBDE 212153Z AUTO 05004KT 10SM OVC048 22/17 A3013 RMK AO2 SLP203 T02170172
KBDE 212053Z AUTO 04004KT 10SM FEW038 OVC047 22/17 A3013 RMK AO2 SLP202 60000 T02170172 50000